createdAt,value
2023-02-14T00:08:18.870Z,-1.21
2023-02-14T00:18:19.780Z,-1.35
2023-02-14T00:28:18.684Z,-1.28
2023-02-14T00:38:18.915Z,-1.21
2023-02-14T00:48:19.093Z,-1.62
2023-02-14T00:58:19.396Z,-1.59
2023-02-14T01:08:19.453Z,-1.51
2023-02-14T01:18:19.695Z,-1.46
2023-02-14T01:28:19.862Z,-1.56
2023-02-14T01:38:20.109Z,-1.30
2023-02-14T01:48:20.293Z,-1.77
2023-02-14T01:58:20.539Z,-1.67
2023-02-14T02:08:20.718Z,-1.66
2023-02-14T02:18:20.947Z,-1.81
2023-02-14T02:28:21.121Z,-1.85
2023-02-14T02:38:21.342Z,-2.10
2023-02-14T02:48:21.525Z,-2.20
2023-02-14T02:58:21.843Z,-2.39
2023-02-14T03:08:21.892Z,-2.14
2023-02-14T03:18:22.133Z,-1.96
2023-02-14T03:28:22.304Z,-2.17
2023-02-14T03:38:22.528Z,-2.40
2023-02-14T03:48:22.708Z,-2.35
2023-02-14T03:58:22.957Z,-2.00
2023-02-14T04:08:23.015Z,-1.80
2023-02-14T04:18:23.292Z,-1.85
2023-02-14T04:28:23.348Z,-2.17
2023-02-14T04:38:23.568Z,-2.36
2023-02-14T04:48:23.731Z,-2.28
2023-02-14T04:58:23.957Z,-2.13
2023-02-14T05:08:24.155Z,-2.10
2023-02-14T05:18:24.386Z,-1.78
2023-02-14T05:28:24.612Z,-2.03
2023-02-14T05:38:25.028Z,-2.26
2023-02-14T05:48:24.854Z,-1.96
2023-02-14T05:58:25.088Z,-1.95
2023-02-14T06:08:25.292Z,-1.96
2023-02-14T06:18:25.524Z,-2.21
2023-02-14T06:28:25.727Z,-2.13
2023-02-14T06:38:25.933Z,-2.10
2023-02-14T06:48:26.127Z,-2.18
2023-02-14T06:58:26.663Z,-2.14
2023-02-14T07:08:26.513Z,-2.26
2023-02-14T07:18:26.743Z,-1.92
2023-02-14T07:28:28.068Z,-1.82
2023-02-14T07:38:27.185Z,-1.36
2023-02-14T07:48:29.665Z,-1.17
2023-02-14T07:58:27.505Z,-1.00
2023-02-14T08:08:27.687Z,-1.07
2023-02-14T08:18:27.937Z,-0.39
2023-02-14T08:28:27.984Z,-0.42
2023-02-14T08:38:28.194Z,0.13
2023-02-14T08:48:28.452Z,0.57
2023-02-14T08:58:28.570Z,0.88
2023-02-14T09:08:28.777Z,1.08
2023-02-14T09:18:29.048Z,1.44
2023-02-14T09:28:29.123Z,1.79
2023-02-14T09:38:29.583Z,2.27
2023-02-14T09:48:29.542Z,3.64
2023-02-14T09:58:29.697Z,4.59
2023-02-14T10:08:29.887Z,4.21
2023-02-14T10:18:30.156Z,4.61
2023-02-14T10:28:30.292Z,6.40
2023-02-14T10:38:30.374Z,6.79
2023-02-14T10:48:30.596Z,6.83
2023-02-14T10:58:30.801Z,6.90
2023-02-14T11:08:31.098Z,8.26
2023-02-14T11:18:31.391Z,8.62
2023-02-14T11:28:31.702Z,9.46
2023-02-14T11:38:31.556Z,9.39
2023-02-14T11:48:38.170Z,9.24
2023-02-14T11:58:33.117Z,9.89
2023-02-14T12:08:32.030Z,10.21
2023-02-14T12:18:32.441Z,10.40
2023-02-14T12:28:32.461Z,10.22
2023-02-14T12:38:33.042Z,10.77
2023-02-14T12:48:32.914Z,11.43
2023-02-14T12:58:33.028Z,11.90
2023-02-14T13:08:33.179Z,11.54
2023-02-14T13:18:33.544Z,11.97
2023-02-14T13:28:33.441Z,12.05
2023-02-14T13:38:33.746Z,12.27
2023-02-14T13:48:34.033Z,12.62
2023-02-14T13:58:34.007Z,12.64
2023-02-14T14:08:34.317Z,12.81
2023-02-14T14:18:34.336Z,13.00
2023-02-14T14:28:34.560Z,13.51
2023-02-14T14:38:34.593Z,12.96
2023-02-14T14:48:35.726Z,13.25
2023-02-14T14:58:35.076Z,14.07
2023-02-14T15:08:35.031Z,13.54
2023-02-14T15:18:35.298Z,12.87
2023-02-14T15:28:35.292Z,12.29
2023-02-14T15:38:35.551Z,11.52
2023-02-14T15:48:35.649Z,10.77
2023-02-14T15:58:36.118Z,10.03
2023-02-14T16:08:36.089Z,9.39
2023-02-14T16:18:36.365Z,8.81
2023-02-14T16:28:36.405Z,8.10
2023-02-14T16:38:36.624Z,7.40
2023-02-14T16:48:36.890Z,6.91
2023-02-14T16:58:36.861Z,6.63
2023-02-14T17:08:37.141Z,5.96
2023-02-14T17:18:37.231Z,5.83
2023-02-14T17:28:37.393Z,5.45
2023-02-14T17:38:37.589Z,5.28
2023-02-14T17:48:37.947Z,4.75
2023-02-14T17:58:38.227Z,4.59
2023-02-14T18:08:38.195Z,4.19
2023-02-14T18:18:38.466Z,3.90
2023-02-14T18:28:38.474Z,3.57
2023-02-14T18:38:38.724Z,3.33
2023-02-14T18:48:38.996Z,2.82
2023-02-14T18:58:38.961Z,2.53
2023-02-14T19:08:39.214Z,2.13
2023-02-14T19:18:39.409Z,1.79
2023-02-14T19:28:39.647Z,1.42
2023-02-14T19:38:39.885Z,1.07
2023-02-14T19:48:39.989Z,0.97
2023-02-14T19:58:40.198Z,0.53
2023-02-14T20:08:40.436Z,0.30
2023-02-14T20:18:40.631Z,0.24
2023-02-14T20:28:40.868Z,0.38
2023-02-14T20:38:41.021Z,-0.05
2023-02-14T20:48:41.126Z,0.13
2023-02-14T20:58:41.285Z,-0.23
2023-02-14T21:08:41.698Z,-0.45
2023-02-14T21:18:41.627Z,-0.50
2023-02-14T21:28:42.037Z,-0.65
2023-02-14T21:38:42.181Z,-0.65
2023-02-14T21:48:42.152Z,-0.68
2023-02-14T21:58:42.323Z,-0.44
2023-02-14T22:08:42.494Z,-0.66
2023-02-14T22:18:42.977Z,-0.68
2023-02-14T22:28:42.852Z,-0.68
2023-02-14T22:38:43.050Z,-0.60
2023-02-14T22:48:43.256Z,-0.34
2023-02-14T22:58:43.876Z,-0.39
2023-02-14T23:08:43.620Z,-0.50
2023-02-14T23:18:43.796Z,-0.51
2023-02-14T23:28:44.275Z,-0.54
2023-02-14T23:38:44.198Z,-0.63
2023-02-14T23:48:44.450Z,-0.66
2023-02-14T23:58:44.612Z,-1.06
